Time;durP1;ratioP1;P1;durP2;ratioP2;P2;SDS_P1;SDS_P2;PMS_P1;PMS_P2;Temp;Humidity;BMP_temperature;BMP_pressure;BME280_temperature;BME280_humidity;BME280_pressure;Samples;Min_cycle;Max_cycle;Signal;HPM_P1;HPM_P2
2024/01/09 00:01:55;;;;;;;1.70;1.60;;;;;;;-12.62;91.32;99463.16;4881169;29;20507;-81
2024/01/09 00:04:22;;;;;;;1.73;1.63;;;;;;;-12.57;91.23;99446.34;4881311;29;20061;-81
2024/01/09 00:06:49;;;;;;;1.50;1.40;;;;;;;-12.49;91.21;99454.53;4864119;29;20060;-80
2024/01/09 00:09:17;;;;;;;1.25;1.20;;;;;;;-12.41;90.99;99463.69;4879809;29;20056;-79
2024/01/09 00:11:45;;;;;;;1.63;1.52;;;;;;;-12.41;90.82;99461.91;4878822;29;20049;-80
2024/01/09 00:14:18;;;;;;;1.90;1.80;;;;;;;-12.37;90.82;99463.41;4854185;29;20399;-81
2024/01/09 00:16:57;;;;;;;1.88;1.77;;;;;;;-12.29;90.80;99448.19;4859693;29;20058;-81
2024/01/09 00:19:37;;;;;;;1.65;1.55;;;;;;;-12.28;90.53;99454.22;4860093;29;20068;-80
2024/01/09 00:22:49;;;;;;;1.80;1.70;;;;;;;-12.22;90.53;99453.88;4879068;29;20052;-83
2024/01/09 00:25:30;;;;;;;1.85;1.75;;;;;;;-12.25;90.14;99456.69;4864628;29;20077;-83
2024/01/09 00:28:19;;;;;;;1.70;1.60;;;;;;;-12.27;90.52;99451.56;4878443;29;20053;-83
2024/01/09 00:31:11;;;;;;;1.70;1.60;;;;;;;-12.22;90.36;99467.72;4878333;29;20052;-82
2024/01/09 00:34:07;;;;;;;2.00;1.90;;;;;;;-12.25;90.31;99451.47;4877806;29;20067;-84
2024/01/09 00:36:53;;;;;;;1.55;1.45;;;;;;;-12.25;90.54;99465.31;4890481;29;20048;-81
2024/01/09 00:39:32;;;;;;;1.73;1.63;;;;;;;-12.22;90.67;99449.53;4879405;29;20113;-81
2024/01/09 00:42:29;;;;;;;1.90;1.80;;;;;;;-12.20;90.65;99448.56;4878802;29;20282;-82
2024/01/09 00:45:00;;;;;;;1.50;1.40;;;;;;;-12.27;90.58;99442.91;4892228;29;20108;-82
2024/01/09 00:47:31;;;;;;;1.50;1.40;;;;;;;-12.15;90.76;99443.94;4880469;29;20075;-81
2024/01/09 00:50:05;;;;;;;1.70;1.60;;;;;;;-12.13;90.88;99437.72;4877210;29;20053;-82
2024/01/09 00:52:42;;;;;;;1.73;1.63;;;;;;;-12.10;90.93;99437.56;4877852;29;20490;-81
2024/01/09 00:55:23;;;;;;;1.70;1.60;;;;;;;-12.03;90.91;99432.81;4878388;29;20064;-81
2024/01/09 00:57:51;;;;;;;1.83;1.73;;;;;;;-12.06;90.92;99443.41;4877974;29;20053;-80
2024/01/09 01:00:23;;;;;;;1.40;1.30;;;;;;;-12.07;90.91;99458.19;4879274;29;20075;-81
2024/01/09 01:02:54;;;;;;;1.70;1.60;;;;;;;-12.01;90.75;99449.19;4893512;29;20061;-80
2024/01/09 01:05:33;;;;;;;1.80;1.70;;;;;;;-12.01;90.62;99451.78;4864016;29;20068;-82
2024/01/09 01:08:02;;;;;;;1.65;1.55;;;;;;;-12.01;90.51;99441.38;4859584;29;20061;-81
2024/01/09 01:10:35;;;;;;;1.75;1.65;;;;;;;-11.98;90.46;99451.59;4860298;29;20113;-81
2024/01/09 01:13:14;;;;;;;1.30;1.20;;;;;;;-12.01;90.56;99437.00;4858454;29;20065;-81
2024/01/09 01:15:54;;;;;;;1.75;1.65;;;;;;;-11.99;90.78;99441.28;4845275;29;20265;-81
2024/01/09 01:18:31;;;;;;;1.60;1.50;;;;;;;-11.96;91.00;99436.72;4859784;29;20062;-81
2024/01/09 01:21:05;;;;;;;1.50;1.40;;;;;;;-11.95;90.85;99435.78;4858240;29;20070;-81
2024/01/09 01:23:34;;;;;;;1.20;1.20;;;;;;;-11.95;91.05;99442.78;4828165;29;20058;-81
2024/01/09 01:26:03;;;;;;;1.17;1.17;;;;;;;-11.96;91.10;99428.09;4859117;29;20050;-81
2024/01/09 01:28:35;;;;;;;1.38;1.27;;;;;;;-11.92;91.00;99430.44;4843480;29;20058;-81
2024/01/09 01:31:13;;;;;;;1.98;1.88;;;;;;;-11.87;91.04;99433.59;4858094;29;20081;-81
2024/01/09 01:33:45;;;;;;;1.60;1.50;;;;;;;-11.89;91.01;99432.84;4857552;29;20468;-81
2024/01/09 01:36:15;;;;;;;1.40;1.30;;;;;;;-11.90;90.94;99425.09;4858390;29;20061;-80
2024/01/09 01:38:52;;;;;;;1.50;1.40;;;;;;;-11.90;90.96;99418.16;4843500;29;20422;-81
2024/01/09 01:41:23;;;;;;;1.50;1.40;;;;;;;-11.91;90.94;99432.09;4842507;29;20148;-82
2024/01/09 01:43:53;;;;;;;1.60;1.50;;;;;;;-11.93;90.71;99420.91;4842541;29;20061;-81
2024/01/09 01:46:33;;;;;;;1.42;1.33;;;;;;;-12.00;90.91;99430.03;4829112;29;20057;-81
2024/01/09 01:49:05;;;;;;;;;;;;;;;-12.01;90.98;99430.97;4857816;29;20061;-81
2024/01/09 01:51:39;;;;;;;1.75;1.65;;;;;;;-12.05;91.10;99416.44;4863414;29;19966;-80
2024/01/09 01:54:07;;;;;;;1.50;1.40;;;;;;;-12.01;90.89;99421.38;4877170;29;20076;-81
2024/01/09 01:56:37;;;;;;;1.50;1.40;;;;;;;-12.06;90.92;99420.00;4877003;29;20053;-81
2024/01/09 01:59:09;;;;;;;1.40;1.30;;;;;;;-11.93;91.05;99415.72;4878158;29;20060;-80
2024/01/09 02:01:39;;;;;;;1.70;1.60;;;;;;;-11.89;90.97;99422.44;4861812;29;20139;-81
2024/01/09 02:04:11;;;;;;;1.58;1.48;;;;;;;-11.89;91.08;99424.19;4877069;29;20056;-81
2024/01/09 02:06:42;;;;;;;1.50;1.40;;;;;;;-11.91;90.93;99421.66;4846632;29;20052;-81
2024/01/09 02:09:17;;;;;;;1.38;1.27;;;;;;;-11.89;90.88;99432.84;4878022;29;20064;-81
2024/01/09 02:12:03;;;;;;;1.48;1.38;;;;;;;-11.82;90.81;99421.09;4877558;29;20078;-80
2024/01/09 02:14:39;;;;;;;1.67;1.58;;;;;;;-11.81;90.62;99427.97;4876154;29;20064;-79
2024/01/09 02:17:16;;;;;;;1.58;1.48;;;;;;;-11.85;90.76;99434.31;4861807;29;20582;-79
2024/01/09 02:19:48;;;;;;;1.70;1.60;;;;;;;-11.83;90.77;99424.59;4877281;29;20057;-80
2024/01/09 02:22:21;;;;;;;1.50;1.40;;;;;;;-11.80;91.02;99419.25;4877233;29;20080;-80
2024/01/09 02:24:54;;;;;;;1.40;1.30;;;;;;;-11.71;90.89;99428.25;4868048;29;20059;-80
2024/01/09 02:27:54;;;;;;;1.60;1.50;;;;;;;-11.70;90.81;99432.50;4883109;29;20080;-80
2024/01/09 02:30:36;;;;;;;1.60;1.50;;;;;;;-11.70;90.94;99432.50;4883020;29;20553;-80
2024/01/09 02:33:15;;;;;;;1.40;1.30;;;;;;;-11.70;91.00;99435.13;4883639;29;20072;-80
2024/01/09 02:35:46;;;;;;;1.52;1.42;;;;;;;-11.69;91.34;99435.97;4882821;29;20053;-80
2024/01/09 02:38:14;;;;;;;1.60;1.50;;;;;;;-11.63;91.29;99439.03;4883349;29;20045;-79
2024/01/09 02:41:05;;;;;;;1.70;1.60;;;;;;;-11.62;91.09;99443.31;4870439;29;20048;-80
2024/01/09 02:43:35;;;;;;;1.33;1.23;;;;;;;-11.58;91.08;99450.00;4867765;29;20586;-80
2024/01/09 02:46:06;;;;;;;1.60;1.50;;;;;;;-11.58;90.92;99444.78;4867581;29;20467;-80
2024/01/09 02:48:52;;;;;;;1.40;1.30;;;;;;;-11.50;90.74;99448.69;4883748;29;20057;-80
2024/01/09 02:52:04;;;;;;;1.40;1.30;;;;;;;-11.53;90.83;99456.72;4872807;29;20053;-80
2024/01/09 02:54:34;;;;;;;1.50;1.40;;;;;;;-11.48;90.74;99458.09;4883670;29;20166;-80
2024/01/09 02:57:09;;;;;;;1.48;1.38;;;;;;;-11.44;90.66;99461.34;4882517;29;20057;-81
2024/01/09 02:59:38;;;;;;;1.40;1.30;;;;;;;-11.43;91.14;99460.44;4882467;29;20064;-80
2024/01/09 03:02:12;;;;;;;1.48;1.38;;;;;;;-11.41;90.89;99454.19;4882790;29;20559;-80
2024/01/09 03:04:47;;;;;;;1.42;1.33;;;;;;;-11.48;90.86;99454.66;4882283;29;20265;-80
2024/01/09 03:07:22;;;;;;;1.48;1.38;;;;;;;-11.54;90.73;99453.28;4884439;29;20104;-80
2024/01/09 03:09:51;;;;;;;;;;;;;;;-11.60;91.05;99453.63;4869440;29;20117;-81
2024/01/09 03:12:24;;;;;;;1.60;1.50;;;;;;;-11.69;91.00;99456.81;4885164;29;19954;-80
2024/01/09 03:15:04;;;;;;;1.60;1.50;;;;;;;-11.65;91.33;99450.47;4883060;29;20104;-80
2024/01/09 03:17:44;;;;;;;1.40;1.30;;;;;;;-11.67;91.34;99450.59;4883147;29;20105;-80
2024/01/09 03:20:22;;;;;;;1.20;1.20;;;;;;;-11.73;91.32;99450.09;4882740;29;20048;-80
2024/01/09 03:23:16;;;;;;;1.42;1.33;;;;;;;-11.81;91.36;99453.16;4883029;29;20140;-80
2024/01/09 03:25:51;;;;;;;1.42;1.33;;;;;;;-11.86;91.82;99458.66;4868761;29;20065;-81
2024/01/09 03:28:26;;;;;;;1.40;1.30;;;;;;;-11.89;92.12;99455.44;4883642;29;20491;-80
2024/01/09 03:31:02;;;;;;;1.40;1.30;;;;;;;-11.82;92.27;99451.50;4867904;29;20404;-80
2024/01/09 03:33:35;;;;;;;;;;;;;;;-11.74;92.37;99451.88;4883679;29;20052;-80
2024/01/09 03:36:07;;;;;;;1.45;1.35;;;;;;;-11.76;92.25;99440.72;4878884;29;19932;-79
2024/01/09 03:38:55;;;;;;;1.42;1.33;;;;;;;-11.72;91.96;99454.38;4879479;29;20049;-79
2024/01/09 03:41:27;;;;;;;1.40;1.30;;;;;;;-11.71;91.85;99454.28;4879418;29;20113;-80
2024/01/09 03:44:02;;;;;;;1.45;1.35;;;;;;;-11.71;92.16;99454.28;4880247;29;20056;-79
2024/01/09 03:46:41;;;;;;;1.63;1.52;;;;;;;-11.72;92.14;99452.63;4880244;29;20053;-79
2024/01/09 03:49:21;;;;;;;1.40;1.30;;;;;;;-11.64;92.18;99463.41;4879170;29;20064;-84
2024/01/09 03:51:55;;;;;;;1.05;1.05;;;;;;;-11.58;92.18;99464.81;4864000;29;20400;-80
2024/01/09 03:54:40;;;;;;;1.60;1.50;;;;;;;-11.52;92.26;99463.59;4879021;29;20060;-82
2024/01/09 03:57:22;;;;;;;1.10;1.10;;;;;;;-11.46;92.54;99453.63;4865948;29;20049;-80
2024/01/09 03:59:52;;;;;;;1.58;1.48;;;;;;;-11.44;91.87;99461.34;4880612;29;20061;-79
2024/01/09 04:02:36;;;;;;;1.70;1.60;;;;;;;-11.46;92.14;99469.28;4879344;29;20518;-81
2024/01/09 04:05:10;;;;;;;1.55;1.45;;;;;;;-11.43;92.31;99473.44;4880226;29;20065;-79
2024/01/09 04:07:45;;;;;;;1.50;1.40;;;;;;;-11.36;92.24;99470.38;4878456;29;20395;-79
2024/01/09 04:10:41;;;;;;;1.25;1.20;;;;;;;-11.37;92.09;99466.09;4865783;29;20048;-80
2024/01/09 04:13:20;;;;;;;1.50;1.40;;;;;;;-11.36;92.08;99474.75;4895236;29;20060;-80
2024/01/09 04:16:11;;;;;;;1.70;1.60;;;;;;;-11.26;92.36;99473.25;4881279;29;20056;-80
2024/01/09 04:18:55;;;;;;;1.45;1.35;;;;;;;-11.24;91.86;99478.34;4896111;29;20052;-80
2024/01/09 04:21:30;;;;;;;1.40;1.30;;;;;;;-11.28;91.47;99482.09;4886767;29;20197;-80
2024/01/09 04:24:35;;;;;;;1.60;1.50;;;;;;;-11.36;91.81;99466.94;4841943;29;20042;-80
2024/01/09 04:27:17;;;;;;;1.80;1.70;;;;;;;-11.39;91.82;99475.78;4871591;29;20073;-80
2024/01/09 04:30:00;;;;;;;1.60;1.50;;;;;;;-11.30;91.77;99470.94;4856369;29;20045;-80
2024/01/09 04:32:33;;;;;;;1.40;1.30;;;;;;;-11.27;91.73;99478.56;4850734;29;20170;-80
2024/01/09 04:35:10;;;;;;;1.33;1.23;;;;;;;-11.24;91.85;99476.59;4857371;29;20053;-80
2024/01/09 04:37:52;;;;;;;1.60;1.50;;;;;;;-11.26;91.62;99475.03;4875130;29;20076;-82
2024/01/09 04:40:36;;;;;;;1.40;1.30;;;;;;;-11.26;91.73;99462.84;4846922;29;20535;-82
2024/01/09 04:43:09;;;;;;;1.60;1.50;;;;;;;-11.21;91.70;99467.75;4877698;29;20086;-81
2024/01/09 04:45:49;;;;;;;1.23;1.20;;;;;;;-11.19;91.35;99471.09;4861017;29;20088;-80
2024/01/09 04:48:33;;;;;;;1.38;1.27;;;;;;;-11.21;91.22;99476.41;4856155;29;20084;-81
2024/01/09 04:51:06;;;;;;;1.40;1.30;;;;;;;-11.23;91.07;99487.88;4860777;29;20064;-80
2024/01/09 04:53:40;;;;;;;1.40;1.30;;;;;;;-11.19;91.13;99486.72;4834768;29;20057;-80
2024/01/09 04:56:15;;;;;;;1.65;1.55;;;;;;;-11.24;91.08;99479.22;4874580;29;20609;-79
2024/01/09 04:58:53;;;;;;;1.23;1.17;;;;;;;-11.20;91.10;99491.09;4876624;29;20060;-80
2024/01/09 05:01:32;;;;;;;1.50;1.40;;;;;;;-11.18;90.70;99489.25;4860579;29;20143;-78
2024/01/09 05:04:03;;;;;;;1.40;1.30;;;;;;;-11.22;90.87;99494.75;4873629;29;20417;-78
2024/01/09 05:06:41;;;;;;;1.45;1.35;;;;;;;-11.25;90.96;99482.72;4876943;29;20450;-79
2024/01/09 05:09:32;;;;;;;1.35;1.25;;;;;;;-11.27;90.89;99486.38;4876264;29;20056;-78
2024/01/09 05:12:10;;;;;;;1.50;1.40;;;;;;;-11.29;90.85;99483.88;4857014;29;20053;-78
2024/01/09 05:14:42;;;;;;;1.65;1.55;;;;;;;-11.28;91.24;99485.53;4841090;29;20403;-78
2024/01/09 05:17:22;;;;;;;1.55;1.45;;;;;;;-11.32;91.01;99478.00;4855261;29;20498;-79
2024/01/09 05:19:59;;;;;;;1.40;1.30;;;;;;;-11.31;91.06;99498.75;4857222;29;20051;-78
2024/01/09 05:22:36;;;;;;;1.50;1.40;;;;;;;-11.25;91.33;99497.53;4856496;29;20065;-78
2024/01/09 05:25:11;;;;;;;1.55;1.45;;;;;;;-11.24;91.47;99496.59;4856642;29;20109;-78
2024/01/09 05:28:16;;;;;;;1.40;1.30;;;;;;;-11.19;91.53;99497.16;4860068;29;20053;-78
2024/01/09 05:31:06;;;;;;;1.65;1.55;;;;;;;-11.18;91.25;99509.25;4872901;29;20104;-78
2024/01/09 05:33:41;;;;;;;1.60;1.50;;;;;;;-11.13;91.17;99507.22;4858523;29;20060;-79
2024/01/09 05:36:21;;;;;;;1.35;1.25;;;;;;;-11.08;90.85;99496.50;4858585;29;20414;-78
2024/01/09 05:38:58;;;;;;;1.38;1.27;;;;;;;-11.05;90.91;99507.56;4844825;29;20056;-78
2024/01/09 05:41:50;;;;;;;1.10;1.10;;;;;;;-11.03;90.26;99508.31;4860372;29;20633;-77
2024/01/09 05:44:34;;;;;;;1.60;1.50;;;;;;;-11.10;90.43;99507.00;4865484;29;20438;-78
2024/01/09 05:47:06;;;;;;;1.48;1.38;;;;;;;-11.06;90.46;99508.50;4879297;29;20080;-78
2024/01/09 05:49:42;;;;;;;1.25;1.20;;;;;;;-11.01;90.58;99508.19;4878537;29;20055;-78
2024/01/09 05:52:14;;;;;;;1.58;1.48;;;;;;;-11.06;90.36;99500.69;4864972;29;20421;-78
2024/01/09 05:54:49;;;;;;;1.42;1.33;;;;;;;-11.07;90.53;99501.59;4864183;29;20048;-77
2024/01/09 05:57:19;;;;;;;1.50;1.40;;;;;;;-10.97;90.69;99499.25;4878824;29;20049;-77
2024/01/09 05:59:51;;;;;;;1.13;1.13;;;;;;;-11.01;90.29;99501.25;4878473;29;20502;-78
2024/01/09 06:02:25;;;;;;;1.40;1.30;;;;;;;-11.01;90.51;99516.88;4862800;29;20163;-79
2024/01/09 06:04:58;;;;;;;1.50;1.40;;;;;;;-10.98;90.48;99521.06;4879845;29;20053;-78
2024/01/09 06:07:33;;;;;;;1.50;1.40;;;;;;;-10.93;90.36;99521.63;4878348;29;20083;-77
2024/01/09 06:10:08;;;;;;;;;;;;;;;-10.92;90.45;99531.94;4882806;29;20045;-77
2024/01/09 06:12:39;;;;;;;1.50;1.40;;;;;;;-10.86;90.32;99535.94;4876271;29;19967;-77
2024/01/09 06:15:10;;;;;;;1.70;1.60;;;;;;;-10.81;90.05;99530.44;4875737;29;20680;-78
2024/01/09 06:17:42;;;;;;;1.40;1.30;;;;;;;-10.80;89.70;99537.34;4858006;29;20110;-78
2024/01/09 06:20:13;;;;;;;1.48;1.38;;;;;;;-10.82;89.54;99539.19;4836319;29;20672;-78
2024/01/09 06:22:53;;;;;;;1.23;1.23;;;;;;;-10.80;89.55;99532.13;4858395;29;20512;-78
2024/01/09 06:25:31;;;;;;;1.10;1.10;;;;;;;-10.87;89.56;99534.25;4855737;29;20093;-78
2024/01/09 06:28:05;;;;;;;1.38;1.27;;;;;;;-10.77;89.49;99544.97;4856420;29;20069;-78
2024/01/09 06:30:40;;;;;;;1.25;1.23;;;;;;;-10.75;89.34;99537.88;4871675;29;20053;-78
2024/01/09 06:33:13;;;;;;;1.20;1.20;;;;;;;-10.70;89.21;99541.88;4856282;29;20073;-78
2024/01/09 06:35:43;;;;;;;1.50;1.40;;;;;;;-10.75;89.18;99532.66;4871274;29;20080;-78
2024/01/09 06:38:15;;;;;;;1.08;1.08;;;;;;;-10.76;89.35;99544.00;4853217;29;20046;-78
2024/01/09 06:40:48;;;;;;;1.10;1.10;;;;;;;-10.75;89.46;99543.09;4841218;29;20124;-78
2024/01/09 06:43:23;;;;;;;1.52;1.42;;;;;;;-10.66;89.72;99533.84;4856706;29;20058;-78
2024/01/09 06:45:52;;;;;;;1.55;1.45;;;;;;;-10.60;89.59;99536.09;4841209;29;20282;-77
2024/01/09 06:48:23;;;;;;;1.40;1.30;;;;;;;-10.56;89.51;99535.75;4853925;29;20458;-78
2024/01/09 06:50:59;;;;;;;1.42;1.33;;;;;;;-10.57;89.25;99534.09;4849840;29;20054;-78
2024/01/09 06:53:31;;;;;;;1.25;1.20;;;;;;;-10.50;89.73;99543.22;4848417;29;20046;-77
2024/01/09 06:56:04;;;;;;;1.17;1.17;;;;;;;-10.43;89.17;99548.03;4842493;29;20482;-79
2024/01/09 06:58:36;;;;;;;1.40;1.30;;;;;;;-10.43;88.96;99550.63;4857966;29;20053;-78
2024/01/09 07:01:10;;;;;;;1.48;1.38;;;;;;;-10.43;89.12;99558.47;4856558;29;20064;-77
2024/01/09 07:03:50;;;;;;;1.50;1.40;;;;;;;-10.43;89.00;99553.25;4855912;29;20058;-79
2024/01/09 07:06:24;;;;;;;1.20;1.20;;;;;;;-10.35;89.17;99562.28;4868522;29;20384;-79
2024/01/09 07:08:58;;;;;;;1.15;1.15;;;;;;;-10.28;88.79;99563.56;4863384;29;20060;-79
2024/01/09 07:11:33;;;;;;;1.20;1.20;;;;;;;-10.23;88.73;99555.38;4871184;29;20053;-78
2024/01/09 07:14:05;;;;;;;1.23;1.20;;;;;;;-10.21;88.68;99568.34;4863741;29;20102;-78
2024/01/09 07:16:37;;;;;;;1.13;1.13;;;;;;;-10.24;88.35;99572.00;4853692;29;20067;-78
2024/01/09 07:19:10;;;;;;;1.30;1.20;;;;;;;-10.17;88.07;99564.63;4865309;29;20060;-78
2024/01/09 07:21:49;;;;;;;1.35;1.25;;;;;;;-10.16;87.92;99566.28;4881714;29;20061;-79
2024/01/09 07:24:22;;;;;;;1.10;1.10;;;;;;;-10.11;87.94;99572.88;4896962;29;20052;-78
2024/01/09 07:26:57;;;;;;;1.23;1.20;;;;;;;-10.14;87.82;99570.47;4881461;29;20498;-78
2024/01/09 07:29:28;;;;;;;1.45;1.35;;;;;;;-10.13;87.54;99551.25;4896673;29;20297;-78
2024/01/09 07:32:03;;;;;;;1.00;1.00;;;;;;;-10.09;87.33;99563.16;4882712;29;20053;-79
2024/01/09 07:34:36;;;;;;;1.00;1.00;;;;;;;-10.20;87.07;99570.88;4881715;29;20157;-80
2024/01/09 07:37:07;;;;;;;1.23;1.20;;;;;;;-10.37;87.31;99576.38;4842515;29;20438;-78
2024/01/09 07:39:40;;;;;;;1.00;1.00;;;;;;;-10.57;86.90;99575.84;4853924;29;20162;-77
2024/01/09 07:42:13;;;;;;;1.40;1.30;;;;;;;-10.55;87.12;99578.38;4836398;29;20057;-78
2024/01/09 07:44:47;;;;;;;1.50;1.40;;;;;;;-10.23;86.84;99580.66;4851713;29;20058;-78
2024/01/09 07:47:18;;;;;;;1.30;1.20;;;;;;;-9.61;85.86;99583.56;4854919;29;20113;-79
2024/01/09 07:49:54;;;;;;;1.60;1.50;;;;;;;-8.99;84.41;99591.53;4852566;29;20049;-78
2024/01/09 07:52:24;;;;;;;1.00;1.00;;;;;;;-9.16;82.60;99590.06;4850124;29;20536;-79
2024/01/09 07:54:55;;;;;;;1.10;1.10;;;;;;;-9.53;82.52;99586.47;4838298;29;20053;-79
2024/01/09 07:57:27;;;;;;;1.40;1.30;;;;;;;-9.72;82.88;99594.72;4850503;29;20515;-79
2024/01/09 08:00:07;;;;;;;1.10;1.10;;;;;;;-10.00;83.29;99587.84;4844095;29;20539;-79
2024/01/09 08:02:44;;;;;;;1.13;1.13;;;;;;;-10.17;83.98;99598.56;4851586;29;20058;-78
2024/01/09 08:05:17;;;;;;;1.10;1.10;;;;;;;-10.14;83.85;99598.34;4835894;29;20799;-78
2024/01/09 08:07:54;;;;;;;1.42;1.33;;;;;;;-9.46;83.41;99602.59;4855501;29;20077;-78
2024/01/09 08:10:28;;;;;;;1.42;1.33;;;;;;;-8.76;81.89;99603.00;4873846;29;21095;-79
2024/01/09 08:13:06;;;;;;;1.40;1.30;;;;;;;-8.26;80.46;99595.09;4870110;29;20755;-81
2024/01/09 08:15:39;;;;;;;1.00;1.00;;;;;;;-8.16;78.31;99596.09;4874441;29;20053;-80
2024/01/09 08:18:13;;;;;;;1.60;1.50;;;;;;;-7.65;77.32;99611.56;4869902;29;20109;-79
2024/01/09 08:20:58;;;;;;;1.60;1.50;;;;;;;-7.41;75.90;99598.41;4873240;29;20057;-79
2024/01/09 08:23:33;;;;;;;1.50;1.40;;;;;;;-7.28;74.61;99589.63;4854929;29;20113;-79
2024/01/09 08:26:07;;;;;;;1.42;1.33;;;;;;;-7.09;74.17;99589.91;4867080;29;20089;-78
2024/01/09 08:28:45;;;;;;;1.10;1.10;;;;;;;-6.80;73.06;99584.19;4854940;29;20060;-78
2024/01/09 08:31:18;;;;;;;1.17;1.17;;;;;;;-6.51;72.06;99586.31;4867889;29;20172;-78
2024/01/09 08:33:54;;;;;;;1.10;1.10;;;;;;;-6.43;71.41;99586.53;4868288;29;20045;-78
2024/01/09 08:36:42;;;;;;;1.23;1.20;;;;;;;-6.69;70.22;99578.09;4841240;29;20502;-78
2024/01/09 08:39:18;;;;;;;1.30;1.20;;;;;;;-6.73;70.18;99587.16;4872065;29;20056;-79
2024/01/09 08:41:53;;;;;;;1.10;1.10;;;;;;;-7.76;70.92;99587.13;4861694;29;20056;-77
2024/01/09 08:44:27;;;;;;;1.45;1.35;;;;;;;-6.88;70.73;99576.09;4875312;29;20063;-78
2024/01/09 08:46:58;;;;;;;1.08;1.08;;;;;;;-7.00;69.58;99577.84;4873796;29;20057;-78
2024/01/09 08:49:31;;;;;;;1.50;1.40;;;;;;;-6.37;70.45;99565.03;4858817;29;20140;-76
2024/01/09 08:52:02;;;;;;;1.50;1.40;;;;;;;-5.37;68.42;99559.44;4847023;29;20088;-77
2024/01/09 08:54:34;;;;;;;1.45;1.35;;;;;;;-4.86;65.80;99554.19;4840135;29;20049;-77
2024/01/09 08:57:06;;;;;;;1.50;1.40;;;;;;;-4.38;63.13;99544.75;4855984;29;20472;-77
2024/01/09 08:59:36;;;;;;;1.00;1.00;;;;;;;-5.69;62.70;99544.56;4862736;29;20053;-78
2024/01/09 09:02:09;;;;;;;1.38;1.27;;;;;;;-5.75;65.45;99548.53;4870172;29;20499;-79
2024/01/09 09:05:01;;;;;;;1.10;1.10;;;;;;;-5.53;64.34;99549.38;4875501;29;20508;-78
2024/01/09 09:07:30;;;;;;;1.58;1.48;;;;;;;-4.71;63.71;99548.53;4876683;29;20084;-78
2024/01/09 09:09:57;;;;;;;1.33;1.25;;;;;;;-4.51;62.14;99545.00;4883220;29;20065;-77
2024/01/09 09:12:28;;;;;;;1.50;1.40;;;;;;;-5.38;61.95;99540.19;4892995;29;20056;-78
2024/01/09 09:14:56;;;;;;;1.40;1.30;;;;;;;-4.90;61.54;99550.13;4879505;29;20057;-78
2024/01/09 09:17:24;;;;;;;1.10;1.10;;;;;;;-5.24;61.01;99546.94;4879430;29;20101;-78
2024/01/09 09:19:54;;;;;;;1.00;1.00;;;;;;;-6.02;63.31;99543.78;4879797;29;20156;-78
2024/01/09 09:22:25;;;;;;;1.38;1.27;;;;;;;-6.66;65.06;99543.72;4893120;29;20491;-77
2024/01/09 09:24:53;;;;;;;1.10;1.10;;;;;;;-7.26;66.09;99548.38;4879646;29;20473;-79
2024/01/09 09:27:20;;;;;;;1.10;1.10;;;;;;;-7.55;67.57;99547.97;4877993;29;20053;-78
2024/01/09 09:29:47;;;;;;;1.00;1.00;;;;;;;-7.71;68.55;99543.06;4879539;29;20059;-78
2024/01/09 09:32:14;;;;;;;1.10;1.10;;;;;;;-7.78;69.18;99550.53;4878893;29;20110;-78
2024/01/09 09:34:42;;;;;;;1.00;1.00;;;;;;;-7.90;69.69;99543.56;4879159;29;20076;-78
2024/01/09 09:37:12;;;;;;;1.08;1.08;;;;;;;-8.11;70.15;99544.22;4879233;29;20075;-79
2024/01/09 09:39:40;;;;;;;1.10;1.10;;;;;;;-8.08;70.37;99546.63;4858557;29;20065;-76
2024/01/09 09:42:07;;;;;;;1.10;1.10;;;;;;;-8.11;70.63;99533.72;4858341;29;20476;-78
2024/01/09 09:44:37;;;;;;;1.00;1.00;;;;;;;-7.97;70.52;99529.28;4843292;29;20053;-78
2024/01/09 09:47:05;;;;;;;1.10;1.10;;;;;;;-8.18;70.86;99529.88;4841833;29;20054;-78
2024/01/09 09:49:38;;;;;;;1.00;1.00;;;;;;;-8.13;71.16;99522.53;4813672;29;20066;-79
2024/01/09 09:52:08;;;;;;;1.20;1.20;;;;;;;-7.65;70.84;99509.34;4813639;29;20632;-78
2024/01/09 09:54:37;;;;;;;1.20;1.20;;;;;;;-7.70;69.97;99508.00;4815498;29;20505;-78
2024/01/09 09:57:09;;;;;;;1.10;1.10;;;;;;;-7.69;70.14;99510.53;4805235;29;20119;-78
2024/01/09 09:59:58;;;;;;;1.27;1.20;;;;;;;-7.83;70.49;99505.47;4800396;29;20054;-78
2024/01/09 10:02:28;;;;;;;0.90;0.90;;;;;;;-7.95;70.94;99503.78;4805562;29;20058;-78
2024/01/09 10:05:02;;;;;;;1.10;1.10;;;;;;;-7.96;71.53;99505.56;4791739;29;20410;-79
2024/01/09 10:07:59;;;;;;;1.00;1.00;;;;;;;-7.93;71.44;99507.97;4808252;29;20109;-83
2024/01/09 10:10:28;;;;;;;1.00;1.00;;;;;;;-8.06;71.36;99508.03;4802925;29;20058;-83
2024/01/09 10:13:01;;;;;;;1.35;1.30;;;;;;;-8.07;71.99;99511.63;4761473;29;20072;-83
2024/01/09 10:15:29;;;;;;;1.00;1.00;;;;;;;-8.16;71.62;99506.22;4806738;29;20066;-83
2024/01/09 10:17:59;;;;;;;1.17;1.17;;;;;;;-8.29;71.06;99496.63;4806210;29;20051;-83
2024/01/09 10:20:32;;;;;;;1.10;1.10;;;;;;;-8.21;71.33;99497.88;4800109;29;20050;-83
2024/01/09 10:22:59;;;;;;;0.95;0.95;;;;;;;-8.21;71.45;99496.06;4807836;29;20524;-83
2024/01/09 10:25:30;;;;;;;1.00;1.00;;;;;;;-8.26;71.26;99490.34;4830293;29;20061;-80
2024/01/09 10:28:06;;;;;;;1.45;1.35;;;;;;;-8.48;71.08;99495.50;4833477;29;20052;-80
2024/01/09 10:30:45;;;;;;;1.00;1.00;;;;;;;-8.57;71.48;99486.53;4851721;29;20050;-80
2024/01/09 10:33:14;;;;;;;1.20;1.20;;;;;;;-8.64;71.83;99480.09;4850548;29;20072;-79
2024/01/09 10:35:46;;;;;;;1.20;1.20;;;;;;;-8.69;72.04;99469.13;4829052;29;20061;-79
2024/01/09 10:38:14;;;;;;;1.10;1.10;;;;;;;-8.75;72.32;99473.84;4838561;29;20512;-79
2024/01/09 10:40:43;;;;;;;1.00;1.00;;;;;;;-8.74;72.52;99474.66;4837390;29;20053;-80
2024/01/09 10:43:16;;;;;;;1.00;1.00;;;;;;;-8.56;72.71;99472.50;4845240;29;20057;-80
2024/01/09 10:45:50;;;;;;;1.10;1.10;;;;;;;-8.41;72.78;99466.16;4877635;29;20057;-80
2024/01/09 10:48:22;;;;;;;1.10;1.10;;;;;;;-8.37;72.60;99458.88;4891638;29;20098;-80
2024/01/09 10:50:52;;;;;;;1.20;1.20;;;;;;;-8.36;72.56;99452.69;4876007;29;20628;-79
2024/01/09 10:53:32;;;;;;;1.10;1.10;;;;;;;-8.46;72.37;99439.47;4878401;29;20057;-79
2024/01/09 10:56:01;;;;;;;1.13;1.13;;;;;;;-8.57;72.25;99447.28;4881263;29;20079;-80
2024/01/09 10:58:35;;;;;;;1.10;1.10;;;;;;;-8.63;72.67;99440.72;4880446;29;20064;-81
2024/01/09 11:01:03;;;;;;;1.10;1.10;;;;;;;-8.67;72.83;99447.13;4877750;29;20112;-79
2024/01/09 11:03:31;;;;;;;1.13;1.13;;;;;;;-8.66;72.87;99445.34;4893005;29;20103;-79
2024/01/09 11:05:59;;;;;;;1.10;1.10;;;;;;;-8.65;73.16;99442.63;4880413;29;20052;-78
2024/01/09 11:08:28;;;;;;;1.13;1.13;;;;;;;-8.66;73.54;99435.69;4861290;29;20068;-79
2024/01/09 11:10:56;;;;;;;1.10;1.10;;;;;;;-8.70;73.50;99438.66;4845719;29;20121;-78
2024/01/09 11:13:23;;;;;;;1.15;1.15;;;;;;;-8.68;73.87;99432.38;4861834;29;20143;-80
2024/01/09 11:15:55;;;;;;;1.00;1.00;;;;;;;-8.65;73.92;99440.00;4847116;29;20152;-79
2024/01/09 11:18:23;;;;;;;1.10;1.10;;;;;;;-8.74;74.19;99441.47;4875844;29;20141;-78
2024/01/09 11:21:01;;;;;;;1.10;1.10;;;;;;;-8.74;74.72;99431.00;4871582;29;20449;-81
2024/01/09 11:23:43;;;;;;;0.90;0.90;;;;;;;-8.77;74.76;99426.00;4875845;29;20147;-79
2024/01/09 11:26:17;;;;;;;1.00;1.00;;;;;;;-8.85;74.96;99420.50;4860775;29;20049;-79
2024/01/09 11:28:48;;;;;;;1.08;1.08;;;;;;;-8.85;75.29;99420.50;4847668;29;20477;-79
2024/01/09 11:31:24;;;;;;;1.10;1.10;;;;;;;-8.82;75.58;99416.84;4834307;29;20053;-79
2024/01/09 11:34:47;;;;;;;1.00;1.00;;;;;;;-8.69;75.68;99416.78;4866175;29;20116;-79
2024/01/09 11:37:22;;;;;;;1.33;1.25;;;;;;;-8.78;76.01;99419.13;4862437;29;20152;-79
2024/01/09 11:39:52;;;;;;;1.13;1.13;;;;;;;-8.86;76.21;99410.16;4864173;29;20064;-79
2024/01/09 11:42:22;;;;;;;1.00;1.00;;;;;;;-8.89;76.74;99411.19;4863095;29;20112;-79
2024/01/09 11:45:25;;;;;;;1.40;1.30;;;;;;;-8.85;77.24;99414.44;4859980;29;20056;-79
2024/01/09 11:47:55;;;;;;;1.00;1.00;;;;;;;-8.86;77.72;99407.53;4875340;29;20124;-79
2024/01/09 11:50:26;;;;;;;1.05;1.05;;;;;;;-8.81;78.07;99394.94;4847685;29;20053;-79
2024/01/09 11:52:55;;;;;;;1.20;1.17;;;;;;;-8.86;78.03;99390.06;4880403;29;20049;-79
2024/01/09 11:55:22;;;;;;;1.10;1.10;;;;;;;-8.89;78.42;99384.22;4893739;29;20084;-79
2024/01/09 11:57:51;;;;;;;1.20;1.20;;;;;;;-8.96;78.53;99368.16;4894152;29;20059;-79
2024/01/09 12:00:20;;;;;;;1.08;1.08;;;;;;;-8.96;79.00;99376.00;4863138;29;20132;-81
2024/01/09 12:03:29;;;;;;;1.08;1.08;;;;;;;-8.98;79.19;99368.25;4866614;29;20061;-78
2024/01/09 12:05:59;;;;;;;1.23;1.20;;;;;;;-9.00;79.29;99370.13;4871142;29;20045;-78
2024/01/09 12:08:37;;;;;;;1.13;1.13;;;;;;;-9.03;79.33;99365.13;4852567;29;20056;-80